Time;durP1;ratioP1;P1;durP2;ratioP2;P2;SDS_P1;SDS_P2;PMS_P1;PMS_P2;Temp;Humidity;BMP_temperature;BMP_pressure;BME280_temperature;BME280_humidity;BME280_pressure;Samples;Min_cycle;Max_cycle;Signal;HPM_P1;HPM_P2
2021/12/10 00:00:27;;;;;;;41.15;28.20;;;4.80;99.90;;;;;;5006538;28;19921;-56
2021/12/10 00:02:53;;;;;;;40.55;26.08;;;4.80;99.90;;;;;;5009420;28;20050;-56
2021/12/10 00:05:27;;;;;;;38.75;25.60;;;4.90;99.90;;;;;;5007890;28;20041;-56
2021/12/10 00:07:55;;;;;;;42.55;26.77;;;4.80;99.90;;;;;;5010258;28;20157;-56
2021/12/10 00:10:24;;;;;;;37.97;25.83;;;4.80;99.90;;;;;;5009371;28;20053;-56
2021/12/10 00:12:52;;;;;;;36.25;24.52;;;4.80;99.90;;;;;;5004955;28;20315;-57
2021/12/10 00:15:23;;;;;;;37.35;24.25;;;4.80;99.90;;;;;;5004837;28;20435;-57
2021/12/10 00:17:49;;;;;;;36.42;22.95;;;4.80;99.90;;;;;;5009124;28;20377;-57
2021/12/10 00:20:16;;;;;;;41.33;23.67;;;4.80;99.90;;;;;;5007403;28;20046;-57
2021/12/10 00:22:51;;;;;;;40.25;23.70;;;4.80;99.90;;;;;;5009742;28;20034;-56
2021/12/10 00:25:20;;;;;;;37.17;22.67;;;4.80;99.90;;;;;;5006642;28;20112;-56
2021/12/10 00:27:48;;;;;;;30.63;22.35;;;4.80;99.90;;;;;;5009441;28;20072;-56
2021/12/10 00:30:28;;;;;;;34.58;22.73;;;4.80;99.90;;;;;;5010581;28;20068;-56
2021/12/10 00:33:11;;;;;;;37.10;22.88;;;4.80;99.90;;;;;;5005270;28;20447;-57
2021/12/10 00:35:38;;;;;;;30.50;21.77;;;4.80;99.90;;;;;;5006982;28;20129;-56
2021/12/10 00:38:22;;;;;;;31.45;21.65;;;4.80;99.90;;;;;;5008858;28;20436;-56
2021/12/10 00:40:50;;;;;;;32.95;22.52;;;4.80;99.90;;;;;;5011112;28;20046;-56
2021/12/10 00:43:15;;;;;;;35.55;22.13;;;4.80;99.90;;;;;;5008596;28;20042;-57
2021/12/10 00:45:41;;;;;;;32.13;22.60;;;4.80;99.90;;;;;;5009613;28;20100;-57
2021/12/10 00:48:07;;;;;;;32.88;22.35;;;4.70;99.90;;;;;;5005842;28;20714;-57
2021/12/10 00:50:41;;;;;;;32.30;21.10;;;4.70;99.90;;;;;;5005980;28;20065;-57
2021/12/10 00:53:06;;;;;;;35.03;22.73;;;4.70;99.90;;;;;;5010075;28;20077;-58
2021/12/10 00:55:33;;;;;;;30.55;21.60;;;4.70;99.90;;;;;;5008673;28;20088;-57
2021/12/10 00:58:00;;;;;;;32.30;21.63;;;4.70;99.90;;;;;;5008687;28;20049;-56
2021/12/10 01:00:30;;;;;;;27.95;21.65;;;4.70;99.90;;;;;;5008976;28;20054;-57
2021/12/10 01:02:56;;;;;;;29.10;19.75;;;4.70;99.90;;;;;;5009414;28;20049;-57
2021/12/10 01:05:22;;;;;;;31.98;20.65;;;4.70;99.90;;;;;;5009621;28;20041;-56
2021/12/10 01:07:48;;;;;;;32.42;20.08;;;4.70;99.90;;;;;;5010528;28;20045;-57
2021/12/10 01:10:21;;;;;;;27.13;19.60;;;4.70;99.90;;;;;;5008947;28;20050;-57
2021/12/10 01:12:49;;;;;;;30.70;19.05;;;4.70;99.90;;;;;;5007480;28;20065;-56
2021/12/10 01:23:58;;;;;;;30.83;18.27;;;4.70;99.90;;;;;;5008509;28;20053;-56
2021/12/10 01:29:31;;;;;;;21.05;16.05;;;4.70;99.90;;;;;;5008959;28;20049;-56
2021/12/10 01:31:58;;;;;;;24.30;16.10;;;4.60;99.90;;;;;;5008004;28;20543;-57
2021/12/10 01:34:24;;;;;;;22.75;15.93;;;4.60;99.90;;;;;;5008844;28;20100;-56
2021/12/10 01:36:51;;;;;;;26.02;16.33;;;4.60;99.90;;;;;;5007965;28;20045;-57
2021/12/10 01:39:21;;;;;;;26.08;15.60;;;4.60;99.90;;;;;;5008110;28;20132;-57
2021/12/10 01:41:54;;;;;;;27.67;16.95;;;4.60;99.90;;;;;;5009894;28;20038;-57
2021/12/10 01:44:29;;;;;;;26.42;16.10;;;4.60;99.90;;;;;;5009525;28;20049;-56
2021/12/10 01:46:59;;;;;;;21.98;15.30;;;4.60;99.90;;;;;;5010187;28;20348;-57
2021/12/10 01:49:26;;;;;;;25.63;16.08;;;4.60;99.90;;;;;;5009922;28;20054;-56
2021/12/10 01:51:51;;;;;;;29.27;15.27;;;4.60;99.90;;;;;;5004100;28;20041;-57
2021/12/10 01:54:40;;;;;;;27.85;15.60;;;4.60;99.90;;;;;;5009137;28;20419;-57
2021/12/10 01:57:08;;;;;;;26.40;15.43;;;4.50;99.90;;;;;;5004812;28;20034;-57
2021/12/10 01:59:36;;;;;;;23.08;14.85;;;4.50;99.90;;;;;;5004419;28;20128;-57
2021/12/10 02:02:06;;;;;;;22.13;14.63;;;4.50;99.90;;;;;;5007839;28;20042;-57
2021/12/10 02:04:35;;;;;;;26.75;14.75;;;4.50;99.90;;;;;;5005248;28;20078;-57
2021/12/10 02:07:01;;;;;;;24.38;14.90;;;4.50;99.90;;;;;;5008408;28;20467;-57
2021/12/10 02:09:27;;;;;;;26.23;15.35;;;4.50;99.90;;;;;;5008235;28;20061;-57
2021/12/10 02:11:53;;;;;;;22.05;15.40;;;4.40;99.90;;;;;;5005034;28;20033;-58
2021/12/10 02:14:20;;;;;;;26.27;14.88;;;4.40;99.90;;;;;;5004626;28;20041;-57
2021/12/10 02:16:47;;;;;;;21.45;15.40;;;4.40;99.90;;;;;;5007158;28;20073;-57
2021/12/10 02:19:14;;;;;;;26.77;15.98;;;4.40;99.90;;;;;;5003511;28;20068;-57
2021/12/10 02:21:40;;;;;;;22.20;14.30;;;4.40;99.90;;;;;;5004979;28;20056;-56
2021/12/10 02:24:08;;;;;;;24.58;15.07;;;4.40;99.90;;;;;;5008418;28;20034;-57
2021/12/10 02:26:58;;;;;;;24.65;15.55;;;4.40;99.90;;;;;;5007000;28;20456;-57
2021/12/10 02:29:27;;;;;;;23.55;15.80;;;4.40;99.90;;;;;;5011417;28;20065;-57
2021/12/10 02:31:54;;;;;;;27.00;16.17;;;4.40;99.90;;;;;;5009903;28;20096;-56
2021/12/10 02:34:20;;;;;;;27.15;15.90;;;4.40;99.90;;;;;;5010174;28;20180;-57
2021/12/10 02:36:46;;;;;;;29.38;16.70;;;4.40;99.90;;;;;;5011640;28;20041;-56
2021/12/10 02:39:16;;;;;;;23.88;15.90;;;4.40;99.90;;;;;;5009658;28;20037;-55
2021/12/10 02:41:43;;;;;;;24.80;17.73;;;4.40;99.90;;;;;;5009788;28;20516;-57
2021/12/10 02:44:12;;;;;;;28.05;18.08;;;4.30;99.90;;;;;;5010655;28;20057;-57
2021/12/10 02:46:39;;;;;;;28.38;18.45;;;4.30;99.90;;;;;;5011566;28;20042;-57
2021/12/10 02:49:08;;;;;;;31.92;19.63;;;4.20;99.90;;;;;;5011274;28;20528;-56
2021/12/10 02:51:35;;;;;;;31.05;20.95;;;4.20;99.90;;;;;;5012248;28;20413;-56
2021/12/10 02:54:03;;;;;;;36.45;22.05;;;4.10;99.90;;;;;;5011117;28;20073;-57
2021/12/10 02:56:29;;;;;;;34.67;21.77;;;4.10;99.90;;;;;;5009601;28;20400;-56
2021/12/10 02:58:58;;;;;;;31.08;22.00;;;4.10;99.90;;;;;;5011164;28;20050;-56
2021/12/10 03:01:33;;;;;;;29.50;20.65;;;4.10;99.90;;;;;;5010168;28;20049;-57
2021/12/10 03:03:59;;;;;;;29.75;20.33;;;4.10;99.90;;;;;;5010007;28;20037;-57
2021/12/10 03:06:27;;;;;;;31.35;21.52;;;4.10;99.90;;;;;;5011572;28;20091;-57
2021/12/10 03:08:55;;;;;;;30.42;21.20;;;4.20;99.90;;;;;;5011006;28;20030;-58
2021/12/10 03:11:28;;;;;;;30.67;20.37;;;4.20;99.90;;;;;;5012250;28;20038;-57
2021/12/10 03:13:54;;;;;;;32.03;20.55;;;4.10;99.90;;;;;;5006756;28;20404;-57
2021/12/10 03:16:22;;;;;;;29.40;19.88;;;4.20;99.90;;;;;;5008996;28;20038;-57
2021/12/10 03:18:48;;;;;;;26.43;19.63;;;4.20;99.90;;;;;;5006233;28;20042;-57
2021/12/10 03:21:13;;;;;;;27.52;19.25;;;4.20;99.90;;;;;;5007995;28;20054;-56
2021/12/10 03:23:43;;;;;;;25.83;18.42;;;4.10;99.90;;;;;;5011353;28;20121;-56
2021/12/10 03:26:10;;;;;;;29.05;18.02;;;4.10;99.90;;;;;;5009598;28;20141;-56
2021/12/10 03:28:40;;;;;;;24.52;17.73;;;4.10;99.90;;;;;;5011504;28;20478;-57
2021/12/10 03:31:07;;;;;;;24.02;18.20;;;4.10;99.90;;;;;;5011450;28;20041;-57
2021/12/10 03:33:34;;;;;;;22.85;18.05;;;4.10;99.90;;;;;;5011427;28;20053;-56
2021/12/10 03:36:00;;;;;;;21.45;17.45;;;4.00;99.90;;;;;;5012140;28;20046;-56
2021/12/10 03:38:27;;;;;;;30.13;18.20;;;3.90;99.90;;;;;;5009030;28;20065;-56
2021/12/10 03:40:53;;;;;;;22.77;17.38;;;3.80;99.90;;;;;;5008761;28;20067;-56
2021/12/10 03:43:19;;;;;;;23.48;17.15;;;3.80;99.90;;;;;;5008910;28;20058;-57
2021/12/10 03:45:49;;;;;;;22.52;16.27;;;3.70;99.90;;;;;;5005964;28;20480;-57
2021/12/10 03:48:19;;;;;;;23.13;16.45;;;3.70;99.90;;;;;;5012054;28;20145;-55
2021/12/10 03:50:46;;;;;;;25.00;16.67;;;3.60;99.90;;;;;;5010890;28;20050;-58
2021/12/10 03:53:13;;;;;;;24.92;16.13;;;3.60;99.90;;;;;;5010483;28;20112;-57
2021/12/10 03:55:39;;;;;;;24.02;16.52;;;3.50;99.90;;;;;;5007191;28;20129;-56
2021/12/10 03:58:06;;;;;;;24.92;16.98;;;3.50;99.90;;;;;;5011502;28;20056;-56
2021/12/10 04:00:36;;;;;;;23.90;17.45;;;3.40;99.90;;;;;;5010146;28;20056;-57
2021/12/10 04:03:03;;;;;;;25.85;17.38;;;3.40;99.90;;;;;;5010586;28;20487;-57
2021/12/10 04:05:29;;;;;;;23.67;16.35;;;3.20;99.90;;;;;;5006589;28;20120;-56
2021/12/10 04:07:55;;;;;;;27.63;17.38;;;3.20;99.90;;;;;;5011443;28;20462;-56
2021/12/10 04:10:22;;;;;;;24.08;17.52;;;3.20;99.90;;;;;;5010848;28;20070;-55
2021/12/10 04:12:48;;;;;;;25.35;17.42;;;3.10;99.90;;;;;;5007341;28;20041;-57
2021/12/10 04:15:18;;;;;;;22.83;16.88;;;3.10;99.90;;;;;;5011095;28;20046;-55
2021/12/10 04:17:44;;;;;;;21.23;17.42;;;3.00;99.90;;;;;;5009133;28;20046;-56
2021/12/10 04:20:13;;;;;;;23.90;18.27;;;2.90;99.90;;;;;;5008038;28;20120;-57
2021/12/10 04:22:39;;;;;;;28.40;19.88;;;2.90;99.90;;;;;;5009654;28;20464;-57
2021/12/10 04:25:07;;;;;;;25.35;18.73;;;2.90;99.90;;;;;;5009621;28;20131;-57
2021/12/10 04:27:34;;;;;;;24.85;18.27;;;2.80;99.90;;;;;;5008817;28;20058;-57
2021/12/10 04:29:59;;;;;;;21.88;17.08;;;2.80;99.90;;;;;;5003536;28;20149;-57
2021/12/10 04:32:27;;;;;;;24.38;17.90;;;2.70;99.90;;;;;;5009658;28;20480;-56
2021/12/10 04:34:53;;;;;;;24.93;18.63;;;2.70;99.90;;;;;;5008509;28;20123;-57
2021/12/10 04:37:20;;;;;;;25.17;19.80;;;2.70;99.90;;;;;;5009805;28;20042;-57
2021/12/10 04:39:48;;;;;;;23.90;18.33;;;2.60;99.90;;;;;;5008351;28;20412;-57
2021/12/10 04:42:17;;;;;;;26.38;19.55;;;2.60;99.90;;;;;;5009649;28;20042;-56
2021/12/10 04:44:42;;;;;;;28.48;19.20;;;2.60;99.90;;;;;;5004642;28;20141;-56
2021/12/10 04:47:09;;;;;;;28.23;18.52;;;2.60;99.90;;;;;;5004857;28;20127;-58
2021/12/10 04:49:35;;;;;;;25.80;18.63;;;2.60;99.90;;;;;;5008502;28;20118;-56
2021/12/10 04:52:02;;;;;;;24.42;19.15;;;2.50;99.90;;;;;;5010215;28;20530;-56
2021/12/10 04:54:27;;;;;;;25.38;19.17;;;2.50;99.90;;;;;;5008975;28;20053;-56
2021/12/10 04:56:57;;;;;;;19.95;15.38;;;2.50;99.90;;;;;;5010296;28;20056;-56
2021/12/10 04:59:23;;;;;;;26.40;19.02;;;2.50;99.90;;;;;;5005742;28;20381;-58
2021/12/10 05:01:53;;;;;;;25.38;18.55;;;2.50;99.90;;;;;;5008076;28;20057;-57
2021/12/10 05:04:18;;;;;;;23.40;18.25;;;2.40;99.90;;;;;;5006416;28;20060;-58
2021/12/10 05:06:44;;;;;;;24.35;18.30;;;2.40;99.90;;;;;;5005822;28;20042;-56
2021/12/10 05:09:12;;;;;;;23.65;18.00;;;2.40;99.90;;;;;;5009174;28;20056;-57
2021/12/10 05:11:38;;;;;;;25.23;18.95;;;2.40;99.90;;;;;;5008544;28;20046;-57
2021/12/10 05:14:05;;;;;;;21.27;17.75;;;2.30;99.90;;;;;;5006760;28;20104;-57
2021/12/10 05:16:32;;;;;;;23.60;17.63;;;2.30;99.90;;;;;;5005182;28;20153;-56
2021/12/10 05:19:00;;;;;;;23.60;17.65;;;2.30;99.90;;;;;;5008055;28;20312;-55
2021/12/10 05:21:30;;;;;;;22.33;17.60;;;2.30;99.90;;;;;;5002700;28;20034;-56
2021/12/10 05:23:56;;;;;;;23.30;17.23;;;2.20;99.90;;;;;;5006059;28;20038;-57
2021/12/10 05:26:22;;;;;;;21.35;16.42;;;2.20;99.90;;;;;;5007153;28;20057;-56
2021/12/10 05:28:48;;;;;;;21.63;16.85;;;2.20;99.90;;;;;;5009459;28;20034;-56
2021/12/10 05:31:14;;;;;;;20.35;17.15;;;2.20;99.90;;;;;;5007247;28;20113;-57
2021/12/10 05:33:39;;;;;;;20.10;16.92;;;2.20;99.90;;;;;;5006855;28;20135;-56
2021/12/10 05:36:06;;;;;;;18.70;15.73;;;2.10;99.90;;;;;;5008473;28;20069;-57
2021/12/10 05:38:33;;;;;;;20.80;12.50;;;2.10;99.90;;;;;;5010715;28;20097;-57
2021/12/10 05:41:02;;;;;;;19.63;15.93;;;2.20;99.90;;;;;;5008660;28;20388;-56
2021/12/10 05:43:28;;;;;;;20.60;15.73;;;2.10;99.90;;;;;;5009922;28;20093;-56
2021/12/10 05:45:53;;;;;;;22.27;15.32;;;2.20;99.90;;;;;;5005749;28;20484;-56
2021/12/10 05:48:20;;;;;;;19.55;15.02;;;2.10;99.90;;;;;;5007017;28;20049;-57
2021/12/10 05:50:46;;;;;;;22.67;15.75;;;2.10;99.90;;;;;;5008811;28;20046;-56
2021/12/10 05:53:13;;;;;;;20.40;15.68;;;2.10;99.90;;;;;;5009658;28;20054;-57
2021/12/10 05:55:41;;;;;;;20.25;15.52;;;2.00;99.90;;;;;;5008912;28;20046;-57
2021/12/10 05:58:08;;;;;;;21.30;15.15;;;2.00;99.90;;;;;;5009710;28;20093;-56
2021/12/10 06:00:55;;;;;;;19.48;15.05;;;2.00;99.90;;;;;;5006970;28;20050;-55
2021/12/10 06:03:23;;;;;;;19.73;14.85;;;1.90;99.90;;;;;;5013006;28;20045;-56
2021/12/10 06:05:49;;;;;;;20.90;15.13;;;1.90;99.90;;;;;;5011131;28;20057;-57
2021/12/10 06:08:18;;;;;;;17.67;13.85;;;1.90;99.90;;;;;;5012596;28;20049;-57
2021/12/10 06:10:46;;;;;;;19.77;15.30;;;1.80;99.90;;;;;;5013349;28;20041;-56
2021/12/10 06:13:12;;;;;;;19.67;14.27;;;1.90;99.90;;;;;;5011381;28;20121;-57
2021/12/10 06:15:38;;;;;;;19.30;14.05;;;1.80;99.90;;;;;;5006083;28;20081;-56
2021/12/10 06:18:04;;;;;;;18.08;14.30;;;1.80;99.90;;;;;;5010639;28;20448;-57
2021/12/10 06:20:34;;;;;;;18.33;14.30;;;1.80;99.90;;;;;;5010146;28;20057;-56
2021/12/10 06:23:00;;;;;;;17.73;14.13;;;1.80;99.90;;;;;;5012147;28;20038;-56
2021/12/10 06:25:28;;;;;;;14.95;13.32;;;1.70;99.90;;;;;;5011970;28;20050;-57
2021/12/10 06:27:54;;;;;;;16.05;11.27;;;1.70;99.90;;;;;;5014083;28;20128;-56
2021/12/10 06:30:23;;;;;;;18.20;13.75;;;1.80;99.90;;;;;;5008166;28;20140;-56
2021/12/10 06:32:50;;;;;;;17.30;12.65;;;1.70;99.90;;;;;;5012613;28;20044;-56
2021/12/10 06:35:17;;;;;;;17.85;14.00;;;1.70;99.90;;;;;;5010636;28;20038;-57
2021/12/10 06:37:44;;;;;;;20.20;13.60;;;1.80;99.90;;;;;;5013118;28;20038;-56
2021/12/10 06:40:13;;;;;;;16.60;12.52;;;1.80;99.90;;;;;;5011987;28;20038;-55
2021/12/10 06:42:39;;;;;;;16.08;12.98;;;1.80;99.90;;;;;;5013272;28;20073;-55
2021/12/10 06:45:08;;;;;;;16.45;12.52;;;1.70;99.90;;;;;;5004295;28;20037;-57
2021/12/10 06:47:34;;;;;;;18.23;13.55;;;1.70;99.90;;;;;;5007734;28;20428;-56
2021/12/10 06:50:00;;;;;;;17.67;13.07;;;1.70;99.90;;;;;;5007532;28;20097;-53
2021/12/10 06:52:27;;;;;;;18.48;12.88;;;1.70;99.90;;;;;;5003123;28;20054;-57
2021/12/10 06:54:52;;;;;;;16.35;12.25;;;1.70;99.90;;;;;;5007660;28;20056;-57
2021/12/10 06:57:18;;;;;;;19.40;13.10;;;1.60;99.90;;;;;;5008138;28;20377;-59
2021/12/10 06:59:44;;;;;;;16.42;12.50;;;1.60;99.90;;;;;;5011152;28;20041;-57
2021/12/10 07:02:11;;;;;;;18.40;13.35;;;1.60;99.90;;;;;;5002485;28;20514;-57
2021/12/10 07:04:41;;;;;;;18.37;13.00;;;1.60;99.90;;;;;;4997036;28;20046;-58
2021/12/10 07:07:08;;;;;;;16.25;12.18;;;1.60;99.90;;;;;;5003713;28;21032;-57
2021/12/10 07:09:34;;;;;;;15.90;12.85;;;1.60;99.90;;;;;;5007402;28;20137;-57
2021/12/10 07:12:00;;;;;;;17.15;12.32;;;1.60;99.90;;;;;;5010729;28;20065;-56
2021/12/10 07:14:26;;;;;;;19.33;12.30;;;1.50;99.90;;;;;;5008225;28;20657;-57
2021/12/10 07:16:52;;;;;;;18.98;12.43;;;1.50;99.90;;;;;;5008814;28;20038;-58
2021/12/10 07:19:18;;;;;;;14.88;11.60;;;1.50;99.90;;;;;;5005570;28;20053;-58
2021/12/10 07:21:44;;;;;;;16.45;11.77;;;1.50;99.90;;;;;;5009185;28;20049;-56
2021/12/10 07:24:14;;;;;;;13.65;10.95;;;1.50;99.90;;;;;;5007877;28;20050;-57
2021/12/10 07:26:40;;;;;;;18.63;11.35;;;1.50;99.90;;;;;;5007012;28;20046;-57
2021/12/10 07:29:07;;;;;;;18.63;11.70;;;1.50;99.90;;;;;;5007308;28;20037;-57
2021/12/10 07:31:34;;;;;;;14.50;11.20;;;1.50;99.90;;;;;;5003896;28;20058;-57
2021/12/10 07:34:00;;;;;;;15.80;11.60;;;1.50;99.90;;;;;;5001807;28;20060;-56
2021/12/10 07:36:26;;;;;;;17.08;10.90;;;1.40;99.90;;;;;;5003226;28;20125;-55
2021/12/10 07:38:53;;;;;;;19.02;11.98;;;1.50;99.90;;;;;;5002559;28;20140;-57
2021/12/10 07:41:19;;;;;;;15.75;10.80;;;1.50;99.90;;;;;;5007481;28;20033;-57
2021/12/10 07:43:44;;;;;;;16.63;11.10;;;1.40;99.90;;;;;;5009265;28;20119;-57
2021/12/10 07:46:12;;;;;;;13.88;10.57;;;1.50;99.90;;;;;;5009799;28;20037;-57
2021/12/10 07:48:39;;;;;;;21.10;11.45;;;1.40;99.90;;;;;;5009212;28;20058;-57
2021/12/10 07:51:15;;;;;;;18.45;10.80;;;1.40;99.90;;;;;;5008359;28;20081;-57
2021/12/10 07:53:42;;;;;;;17.38;11.52;;;1.40;99.90;;;;;;5009401;28;20046;-56
2021/12/10 07:56:10;;;;;;;20.27;11.90;;;1.40;99.90;;;;;;5002679;28;20073;-56
2021/12/10 07:58:37;;;;;;;16.50;11.18;;;1.50;99.90;;;;;;5001710;28;20484;-56
2021/12/10 08:01:07;;;;;;;14.45;10.98;;;1.50;99.90;;;;;;4999670;28;20084;-57
2021/12/10 08:03:33;;;;;;;12.68;10.27;;;1.50;99.90;;;;;;5003751;28;20045;-56
2021/12/10 08:05:59;;;;;;;20.67;11.90;;;1.50;99.90;;;;;;5002875;28;20084;-57
2021/12/10 08:08:24;;;;;;;15.52;10.45;;;1.50;99.90;;;;;;5009258;28;20052;-56
2021/12/10 08:10:50;;;;;;;18.80;10.55;;;1.50;99.90;;;;;;5010487;28;20044;-57
2021/12/10 08:13:17;;;;;;;14.52;10.25;;;1.50;99.90;;;;;;5006520;28;20038;-57
2021/12/10 08:15:43;;;;;;;15.85;9.98;;;1.60;99.90;;;;;;5009425;28;20033;-57
2021/12/10 08:18:09;;;;;;;16.85;10.07;;;1.60;99.90;;;;;;5012161;28;20088;-56
2021/12/10 08:20:35;;;;;;;16.92;10.52;;;1.60;99.90;;;;;;5009837;28;20034;-56
2021/12/10 08:23:02;;;;;;;16.40;10.68;;;1.60;99.90;;;;;;5012169;28;20148;-56
2021/12/10 08:25:29;;;;;;;15.82;10.57;;;1.60;99.90;;;;;;5011904;28;20128;-57
2021/12/10 08:27:56;;;;;;;17.30;10.10;;;1.70;99.90;;;;;;5011931;28;20060;-58
2021/12/10 08:30:25;;;;;;;13.95;10.20;;;1.60;99.90;;;;;;5010589;28;20042;-57
2021/12/10 08:32:54;;;;;;;14.50;9.70;;;1.70;99.90;;;;;;5008901;28;20042;-57
2021/12/10 08:35:23;;;;;;;15.68;10.00;;;1.70;99.90;;;;;;5009668;28;20137;-57
2021/12/10 08:37:50;;;;;;;15.82;10.48;;;1.70;99.90;;;;;;5009678;28;20104;-58
2021/12/10 08:40:21;;;;;;;16.85;10.70;;;1.80;99.90;;;;;;5011231;28;20081;-56
2021/12/10 08:42:47;;;;;;;14.35;9.77;;;1.80;99.90;;;;;;5011054;28;20148;-57
2021/12/10 08:45:13;;;;;;;15.27;10.38;;;1.80;99.90;;;;;;5009314;28;20049;-58
2021/12/10 08:47:38;;;;;;;14.10;9.77;;;1.90;99.90;;;;;;5009409;28;20436;-57
2021/12/10 08:50:07;;;;;;;15.65;9.85;;;1.90;99.90;;;;;;5008519;28;20050;-57
2021/12/10 08:52:33;;;;;;;14.18;9.70;;;1.90;99.90;;;;;;5011078;28;20137;-57
2021/12/10 08:54:59;;;;;;;15.30;9.93;;;1.90;99.90;;;;;;5007386;28;20129;-57
2021/12/10 08:57:26;;;;;;;13.60;9.77;;;2.00;99.90;;;;;;5008821;28;20451;-57
2021/12/10 08:59:52;;;;;;;13.25;9.98;;;2.00;99.90;;;;;;5008052;28;20385;-58
2021/12/10 09:02:18;;;;;;;11.95;9.20;;;2.00;99.90;;;;;;4993324;28;20053;-57
2021/12/10 09:04:46;;;;;;;13.05;9.02;;;2.10;99.90;;;;;;5010077;28;20492;-57
2021/12/10 09:07:14;;;;;;;;;;;2.10;99.90;;;;;;5011256;28;20046;-57
2021/12/10 09:09:42;;;;;;;11.45;8.25;;;2.20;99.90;;;;;;5009179;28;20423;-56
2021/12/10 09:12:12;;;;;;;;;;;2.20;99.90;;;;;;4998263;28;20267;-56
2021/12/10 09:14:44;;;;;;;12.15;8.50;;;2.20;99.90;;;;;;5010731;28;19922;-57
2021/12/10 09:17:11;;;;;;;10.75;8.02;;;2.30;99.90;;;;;;5010695;28;20050;-57
2021/12/10 09:19:40;;;;;;;14.82;8.15;;;2.40;99.90;;;;;;5011498;28;20161;-56
2021/12/10 09:22:07;;;;;;;12.63;8.70;;;2.40;99.90;;;;;;5010705;28;20029;-56
2021/12/10 09:24:32;;;;;;;12.13;7.82;;;2.40;99.90;;;;;;5010635;28;20507;-57
2021/12/10 09:27:00;;;;;;;11.77;7.85;;;2.50;99.90;;;;;;5012285;28;20050;-57
2021/12/10 09:29:31;;;;;;;12.88;7.93;;;2.60;99.90;;;;;;5009164;28;20079;-57
2021/12/10 09:31:58;;;;;;;9.50;7.53;;;2.60;99.90;;;;;;4992822;28;20057;-57
2021/12/10 09:34:23;;;;;;;14.15;7.68;;;2.70;99.90;;;;;;4998400;28;20403;-57
2021/12/10 09:36:52;;;;;;;13.32;8.40;;;2.70;99.90;;;;;;5010286;28;20042;-55
2021/12/10 09:39:20;;;;;;;10.27;7.45;;;2.80;99.90;;;;;;5011595;28;20366;-58
2021/12/10 09:41:46;;;;;;;10.98;7.15;;;2.80;99.90;;;;;;4992482;28;20045;-58
2021/12/10 09:44:12;;;;;;;13.70;7.55;;;2.80;99.90;;;;;;5006833;28;20097;-57
2021/12/10 09:46:39;;;;;;;10.40;6.95;;;2.90;99.90;;;;;;5005923;28;20072;-57
2021/12/10 09:49:07;;;;;;;11.02;6.93;;;3.00;99.90;;;;;;5011927;28;20065;-57
2021/12/10 09:51:50;;;;;;;9.88;6.85;;;3.00;99.90;;;;;;5008761;28;20046;-57
2021/12/10 09:54:20;;;;;;;8.10;7.18;;;3.10;99.90;;;;;;5004877;28;20041;-57
2021/12/10 09:56:57;;;;;;;11.10;6.68;;;3.10;99.90;;;;;;5009250;28;20042;-55
2021/12/10 09:59:23;;;;;;;11.65;6.20;;;3.20;99.90;;;;;;5011469;28;20034;-57
2021/12/10 10:01:52;;;;;;;9.27;6.75;;;3.20;99.90;;;;;;5009790;28;20045;-58
2021/12/10 10:04:20;;;;;;;12.35;6.50;;;3.30;99.90;;;;;;5012151;28;20129;-59
2021/12/10 10:06:50;;;;;;;8.85;6.75;;;3.30;99.90;;;;;;5009108;28;20042;-58
2021/12/10 10:09:19;;;;;;;9.63;5.85;;;3.40;99.90;;;;;;5012123;28;20100;-58
2021/12/10 10:11:47;;;;;;;8.98;6.15;;;3.40;99.90;;;;;;5010708;28;20053;-58
2021/12/10 10:14:13;;;;;;;7.25;5.70;;;3.40;99.90;;;;;;5011014;28;20045;-58
2021/12/10 10:16:43;;;;;;;11.38;5.97;;;3.50;99.90;;;;;;5010631;28;20058;-58
2021/12/10 10:19:10;;;;;;;10.45;5.72;;;3.50;99.90;;;;;;5011150;28;20507;-58
2021/12/10 10:21:43;;;;;;;8.63;5.50;;;3.60;99.90;;;;;;5010024;28;20042;-59
2021/12/10 10:24:10;;;;;;;10.20;5.43;;;3.60;99.90;;;;;;5010737;28;20122;-58
2021/12/10 10:26:41;;;;;;;10.00;5.63;;;3.70;99.90;;;;;;5009546;28;20034;-58
2021/12/10 10:29:14;;;;;;;10.27;5.55;;;3.70;99.90;;;;;;5011044;28;20044;-58
2021/12/10 10:31:46;;;;;;;7.32;5.28;;;3.80;99.90;;;;;;5010905;28;20046;-58
2021/12/10 10:34:12;;;;;;;7.03;4.65;;;3.80;99.90;;;;;;4986195;28;20045;-58
2021/12/10 10:36:38;;;;;;;9.45;5.10;;;3.80;99.90;;;;;;5007184;28;20034;-58
2021/12/10 10:39:09;;;;;;;7.28;5.13;;;3.90;99.90;;;;;;4993558;28;20142;-58
2021/12/10 10:41:36;;;;;;;8.20;5.00;;;4.00;99.90;;;;;;5009966;28;20042;-58
2021/12/10 10:44:02;;;;;;;7.57;4.70;;;4.00;99.90;;;;;;5011367;28;20091;-56
2021/12/10 10:46:29;;;;;;;6.47;4.85;;;4.10;99.90;;;;;;5010192;28;20046;-56
2021/12/10 10:48:55;;;;;;;10.45;4.97;;;4.10;99.90;;;;;;5012427;28;20046;-56
2021/12/10 10:51:33;;;;;;;7.07;4.57;;;4.20;99.90;;;;;;5013399;28;20433;-55
2021/12/10 10:54:01;;;;;;;9.93;4.25;;;4.30;99.90;;;;;;5013303;28;20357;-55
2021/12/10 10:56:36;;;;;;;;;;;4.30;99.90;;;;;;5012553;28;20504;-54
2021/12/10 10:59:17;;;;;;;5.22;4.10;;;4.40;99.90;;;;;;5015195;28;19918;-55
2021/12/10 11:01:57;;;;;;;6.07;4.20;;;4.40;99.90;;;;;;5011125;28;20041;-55
2021/12/10 11:04:29;;;;;;;8.43;3.75;;;4.50;99.90;;;;;;5014096;28;20099;-56
2021/12/10 11:07:04;;;;;;;7.90;4.25;;;4.50;99.90;;;;;;5011430;28;20064;-55
2021/12/10 11:09:32;;;;;;;6.15;3.90;;;4.50;99.90;;;;;;4995238;28;20057;-56
2021/12/10 11:12:06;;;;;;;7.93;4.45;;;4.50;99.90;;;;;;5009824;28;20046;-58
2021/12/10 11:14:42;;;;;;;7.95;3.83;;;4.60;99.90;;;;;;5011098;28;20046;-57
2021/12/10 11:17:29;;;;;;;5.68;3.30;;;4.60;99.90;;;;;;4994252;28;20061;-56
2021/12/10 11:20:07;;;;;;;7.15;4.15;;;4.70;99.90;;;;;;5012450;28;20166;-57
2021/12/10 11:22:33;;;;;;;5.75;3.80;;;4.70;99.90;;;;;;5012081;28;20046;-57
2021/12/10 11:25:03;;;;;;;5.55;3.40;;;4.70;99.90;;;;;;5006494;28;20466;-57
2021/12/10 11:27:37;;;;;;;7.55;3.80;;;4.80;99.90;;;;;;5014865;28;20453;-57
2021/12/10 11:30:02;;;;;;;6.35;3.58;;;4.80;99.90;;;;;;5011923;28;20042;-58
2021/12/10 11:32:36;;;;;;;6.82;3.65;;;;;;;;;;5014596;28;20054;-57
2021/12/10 11:35:12;;;;;;;8.48;3.50;;;5.00;99.90;;;;;;5012729;28;20408;-57
2021/12/10 11:38:04;;;;;;;9.82;4.05;;;5.00;99.90;;;;;;5011886;28;20050;-56
2021/12/10 11:40:40;;;;;;;6.78;3.33;;;5.00;99.90;;;;;;5013095;28;20046;-56
2021/12/10 11:43:20;;;;;;;5.88;3.50;;;5.10;99.90;;;;;;5014608;28;20149;-56
2021/12/10 11:46:02;;;;;;;6.20;3.25;;;5.10;99.90;;;;;;5013620;28;20046;-57
2021/12/10 11:48:29;;;;;;;6.93;3.45;;;5.20;99.90;;;;;;5014371;28;20399;-56
2021/12/10 11:51:12;;;;;;;6.97;3.30;;;5.20;99.90;;;;;;5010988;28;20128;-57
2021/12/10 11:53:51;;;;;;;7.68;2.85;;;5.20;99.90;;;;;;4994569;28;20081;-57
2021/12/10 11:56:27;;;;;;;7.90;3.33;;;5.30;99.90;;;;;;5006182;28;20038;-57
2021/12/10 11:59:06;;;;;;;5.55;2.70;;;5.30;99.90;;;;;;5013885;28;20096;-57
2021/12/10 12:01:43;;;;;;;6.25;3.00;;;5.30;99.90;;;;;;5011676;28;20522;-57
2021/12/10 12:04:16;;;;;;;5.13;2.90;;;5.30;99.90;;;;;;5013599;28;20053;-56
2021/12/10 12:06:42;;;;;;;8.05;2.90;;;5.40;99.90;;;;;;5009238;28;20046;-56
2021/12/10 12:09:07;;;;;;;7.30;2.85;;;5.40;99.90;;;;;;5014216;28;20117;-57
2021/12/10 12:11:33;;;;;;;8.25;2.90;;;5.40;99.90;;;;;;5012901;28;20133;-56
2021/12/10 12:14:21;;;;;;;4.57;2.72;;;5.50;99.90;;;;;;5000358;28;20440;-56
2021/12/10 12:16:46;;;;;;;;;;;5.50;99.90;;;;;;5006523;28;20042;-55
2021/12/10 12:19:12;;;;;;;4.70;2.70;;;5.50;99.90;;;;;;5011068;28;19929;-56
2021/12/10 12:21:37;;;;;;;10.95;2.92;;;5.60;99.90;;;;;;5012202;28;20046;-56
2021/12/10 12:27:12;;;;;;;7.22;2.97;;;5.60;99.90;;;;;;5013122;28;20060;-57
2021/12/10 12:29:52;;;;;;;7.82;2.97;;;5.60;99.90;;;;;;5013223;28;20045;-57
2021/12/10 12:32:20;;;;;;;5.97;2.80;;;5.50;99.90;;;;;;5011030;28;20045;-56
2021/12/10 12:34:46;;;;;;;4.10;2.53;;;5.50;99.90;;;;;;5009669;28;20052;-56
2021/12/10 12:37:15;;;;;;;5.50;2.60;;;5.50;99.90;;;;;;5011428;28;20048;-56
2021/12/10 12:39:48;;;;;;;8.63;2.42;;;5.40;99.90;;;;;;5011563;28;20038;-57
2021/12/10 12:42:23;;;;;;;5.55;2.67;;;5.40;99.90;;;;;;5010348;28;20041;-56
2021/12/10 12:44:55;;;;;;;4.68;2.75;;;5.50;99.90;;;;;;5000271;28;20061;-57
2021/12/10 12:47:32;;;;;;;8.95;3.95;;;5.50;99.90;;;;;;5004260;28;20056;-55
2021/12/10 12:50:09;;;;;;;8.07;3.70;;;5.50;99.90;;;;;;5001498;28;20053;-57
2021/12/10 12:52:55;;;;;;;6.07;3.47;;;5.50;99.90;;;;;;5005196;28;20050;-58
2021/12/10 12:55:42;;;;;;;7.47;3.25;;;5.40;99.90;;;;;;5007858;28;20297;-57
2021/12/10 12:58:10;;;;;;;6.07;2.73;;;5.40;99.90;;;;;;5001784;28;20069;-57
2021/12/10 13:00:48;;;;;;;7.07;3.20;;;5.40;99.90;;;;;;5000016;28;20602;-55
2021/12/10 13:03:29;;;;;;;5.13;2.50;;;5.40;99.90;;;;;;5004123;28;20554;-55
2021/12/10 13:06:22;;;;;;;6.10;2.67;;;5.40;99.90;;;;;;5005533;28;20482;-56